sensor_id;sensor_type;location;lat;lon;timestamp;pressure;altitude;pressure_sealevel;temperature;humidity
20895;BME280;10607;42.066;24.742;2022-08-04T17:09:57;98059.88;;;30.65;34.10
20895;BME280;10607;42.066;24.742;2022-08-04T17:12:27;98059.69;;;30.51;34.66
20895;BME280;10607;42.066;24.742;2022-08-04T17:14:52;98064.25;;;30.36;34.63
20895;BME280;10607;42.066;24.742;2022-08-04T17:17:21;98059.53;;;30.30;34.11
20895;BME280;10607;42.066;24.742;2022-08-04T17:19:51;98067.06;;;30.20;35.13
20895;BME280;10607;42.066;24.742;2022-08-04T17:22:18;98068.00;;;30.12;34.82
20895;BME280;10607;42.066;24.742;2022-08-04T17:24:44;98076.88;;;30.06;34.61
20895;BME280;10607;42.066;24.742;2022-08-04T17:27:09;98071.13;;;30.01;35.13
20895;BME280;10607;42.066;24.742;2022-08-04T17:29:35;98071.84;;;29.94;35.15
20895;BME280;10607;42.066;24.742;2022-08-04T17:32:00;98077.91;;;29.82;34.62
20895;BME280;10607;42.066;24.742;2022-08-04T17:34:26;98079.56;;;29.83;34.83
20895;BME280;10607;42.066;24.742;2022-08-04T17:36:51;98074.34;;;29.81;34.69
20895;BME280;10607;42.066;24.742;2022-08-04T17:39:20;98079.28;;;29.77;34.79
20895;BME280;10607;42.066;24.742;2022-08-04T17:41:54;98086.38;;;29.78;34.25
20895;BME280;10607;42.066;24.742;2022-08-04T17:44:19;98091.50;;;29.73;34.83
20895;BME280;10607;42.066;24.742;2022-08-04T17:46:45;98084.41;;;29.64;35.53
20895;BME280;10607;42.066;24.742;2022-08-04T17:52:18;98092.28;;;29.51;35.33
20895;BME280;10607;42.066;24.742;2022-08-04T17:54:44;98092.47;;;29.49;34.88
20895;BME280;10607;42.066;24.742;2022-08-04T17:57:14;98095.53;;;29.46;35.24
20895;BME280;10607;42.066;24.742;2022-08-04T17:59:41;98094.91;;;29.36;35.24
20895;BME280;10607;42.066;24.742;2022-08-04T18:02:07;98100.38;;;29.28;35.75
20895;BME280;10607;42.066;24.742;2022-08-04T18:04:48;98101.59;;;29.17;35.32
20895;BME280;10607;42.066;24.742;2022-08-04T18:07:19;98103.97;;;29.12;35.51
20895;BME280;10607;42.066;24.742;2022-08-04T18:09:55;98105.84;;;29.03;36.02
20895;BME280;10607;42.066;24.742;2022-08-04T18:12:32;98105.84;;;29.03;35.19
20895;BME280;10607;42.066;24.742;2022-08-04T18:15:05;98106.19;;;29.00;34.97
20895;BME280;10607;42.066;24.742;2022-08-04T18:17:38;98113.47;;;29.00;35.04
20895;BME280;10607;42.066;24.742;2022-08-04T18:20:06;98114.34;;;28.92;35.17
20895;BME280;10607;42.066;24.742;2022-08-04T18:22:33;98119.44;;;28.87;35.66
20895;BME280;10607;42.066;24.742;2022-08-04T18:24:59;98121.63;;;28.83;35.45
20895;BME280;10607;42.066;24.742;2022-08-04T18:27:28;98126.22;;;28.83;35.08
20895;BME280;10607;42.066;24.742;2022-08-04T18:29:54;98118.09;;;28.83;35.52
20895;BME280;10607;42.066;24.742;2022-08-04T18:32:20;98125.56;;;28.81;35.70
20895;BME280;10607;42.066;24.742;2022-08-04T18:34:48;98126.06;;;28.76;35.19
20895;BME280;10607;42.066;24.742;2022-08-04T18:37:14;98124.88;;;28.70;35.14
20895;BME280;10607;42.066;24.742;2022-08-04T18:39:40;98133.69;;;28.64;35.52
20895;BME280;10607;42.066;24.742;2022-08-04T18:42:06;98128.28;;;28.64;35.70
20895;BME280;10607;42.066;24.742;2022-08-04T18:44:32;98136.94;;;28.60;35.55
20895;BME280;10607;42.066;24.742;2022-08-04T18:46:58;98138.28;;;28.55;36.22
20895;BME280;10607;42.066;24.742;2022-08-04T18:49:24;98141.13;;;28.46;36.25
20895;BME280;10607;42.066;24.742;2022-08-04T18:51:51;98148.06;;;28.48;36.22
20895;BME280;10607;42.066;24.742;2022-08-04T18:54:16;98144.38;;;28.49;35.83
20895;BME280;10607;42.066;24.742;2022-08-04T18:56:42;98153.84;;;28.53;35.70
20895;BME280;10607;42.066;24.742;2022-08-04T18:59:08;98155.22;;;28.57;36.00
20895;BME280;10607;42.066;24.742;2022-08-04T19:01:33;98162.50;;;28.57;35.57
20895;BME280;10607;42.066;24.742;2022-08-04T19:03:59;98157.91;;;28.49;35.76
20895;BME280;10607;42.066;24.742;2022-08-04T19:06:24;98160.63;;;28.49;35.49
20895;BME280;10607;42.066;24.742;2022-08-04T19:08:50;98159.59;;;28.50;35.70
20895;BME280;10607;42.066;24.742;2022-08-04T19:11:15;98159.25;;;28.37;36.00
20895;BME280;10607;42.066;24.742;2022-08-04T19:13:41;98161.09;;;28.36;35.79
20895;BME280;10607;42.066;24.742;2022-08-04T19:16:07;98166.16;;;28.31;36.37
20895;BME280;10607;42.066;24.742;2022-08-04T19:18:33;98166.50;;;28.28;36.76
20895;BME280;10607;42.066;24.742;2022-08-04T19:20:58;98164.28;;;28.24;36.48
20895;BME280;10607;42.066;24.742;2022-08-04T19:23:25;98171.25;;;28.18;36.28
20895;BME280;10607;42.066;24.742;2022-08-04T19:25:51;98161.59;;;28.15;36.54
20895;BME280;10607;42.066;24.742;2022-08-04T19:28:16;98169.19;;;28.12;36.64
20895;BME280;10607;42.066;24.742;2022-08-04T19:30:42;98166.13;;;28.07;36.82
20895;BME280;10607;42.066;24.742;2022-08-04T19:33:09;98164.78;;;28.03;36.59
20895;BME280;10607;42.066;24.742;2022-08-04T19:35:34;98166.63;;;28.02;37.32
20895;BME280;10607;42.066;24.742;2022-08-04T19:38:02;98164.78;;;28.03;37.01
20895;BME280;10607;42.066;24.742;2022-08-04T19:40:27;98167.31;;;27.96;37.24
20895;BME280;10607;42.066;24.742;2022-08-04T19:42:53;98166.28;;;27.89;37.51
20895;BME280;10607;42.066;24.742;2022-08-04T19:45:18;98158.47;;;27.86;37.19
20895;BME280;10607;42.066;24.742;2022-08-04T19:47:44;98166.72;;;27.84;37.52
20895;BME280;10607;42.066;24.742;2022-08-04T19:50:09;98170.97;;;27.78;37.10
20895;BME280;10607;42.066;24.742;2022-08-04T19:52:35;98164.50;;;27.71;37.66
20895;BME280;10607;42.066;24.742;2022-08-04T19:55:00;98166.69;;;27.68;37.86
20895;BME280;10607;42.066;24.742;2022-08-04T19:57:26;98168.00;;;27.55;37.68
20895;BME280;10607;42.066;24.742;2022-08-04T19:59:51;98165.97;;;27.49;38.13
20895;BME280;10607;42.066;24.742;2022-08-04T20:02:17;98165.28;;;27.47;38.22
20895;BME280;10607;42.066;24.742;2022-08-04T20:04:42;98165.44;;;27.46;38.08
20895;BME280;10607;42.066;24.742;2022-08-04T20:07:08;98174.19;;;27.40;38.42
20895;BME280;10607;42.066;24.742;2022-08-04T20:09:33;98172.44;;;27.30;38.13
20895;BME280;10607;42.066;24.742;2022-08-04T20:11:58;98172.78;;;27.27;38.96
20895;BME280;10607;42.066;24.742;2022-08-04T20:14:24;98168.72;;;27.23;38.92
20895;BME280;10607;42.066;24.742;2022-08-04T20:16:52;98177.09;;;27.20;38.87
20895;BME280;10607;42.066;24.742;2022-08-04T20:19:17;98178.59;;;27.14;38.91
20895;BME280;10607;42.066;24.742;2022-08-04T20:21:43;98181.25;;;27.06;38.98
20895;BME280;10607;42.066;24.742;2022-08-04T20:24:08;98181.03;;;27.00;39.73
20895;BME280;10607;42.066;24.742;2022-08-04T20:26:34;98179.63;;;26.95;39.73
20895;BME280;10607;42.066;24.742;2022-08-04T20:28:59;98183.38;;;26.94;39.45
20895;BME280;10607;42.066;24.742;2022-08-04T20:31:25;98181.84;;;26.92;40.06
20895;BME280;10607;42.066;24.742;2022-08-04T20:33:50;98182.81;;;26.91;39.75
20895;BME280;10607;42.066;24.742;2022-08-04T20:36:15;98185.38;;;26.92;40.03
20895;BME280;10607;42.066;24.742;2022-08-04T20:38:41;98186.56;;;26.90;40.38
20895;BME280;10607;42.066;24.742;2022-08-04T20:41:06;98188.16;;;26.83;40.36
20895;BME280;10607;42.066;24.742;2022-08-04T20:43:32;98191.44;;;26.68;40.40
20895;BME280;10607;42.066;24.742;2022-08-04T20:45:58;98198.06;;;26.74;40.69
20895;BME280;10607;42.066;24.742;2022-08-04T20:48:26;98196.41;;;26.73;40.71
20895;BME280;10607;42.066;24.742;2022-08-04T20:50:52;98194.38;;;26.75;40.37
20895;BME280;10607;42.066;24.742;2022-08-04T20:53:17;98186.59;;;26.72;41.14
20895;BME280;10607;42.066;24.742;2022-08-04T20:55:44;98199.53;;;26.68;41.13
20895;BME280;10607;42.066;24.742;2022-08-04T20:58:09;98197.53;;;26.70;41.13
20895;BME280;10607;42.066;24.742;2022-08-04T21:00:35;98195.38;;;26.74;40.66
20895;BME280;10607;42.066;24.742;2022-08-04T21:03:00;98196.06;;;26.76;40.86
20895;BME280;10607;42.066;24.742;2022-08-04T21:05:27;98193.22;;;26.77;40.32
20895;BME280;10607;42.066;24.742;2022-08-04T21:07:56;98204.72;;;26.80;40.29
20895;BME280;10607;42.066;24.742;2022-08-04T21:10:25;98201.09;;;26.71;40.58
20895;BME280;10607;42.066;24.742;2022-08-04T21:12:52;98199.19;;;26.63;41.37
20895;BME280;10607;42.066;24.742;2022-08-04T21:15:18;98207.25;;;26.45;42.35
20895;BME280;10607;42.066;24.742;2022-08-04T21:17:43;98209.50;;;26.32;43.03
20895;BME280;10607;42.066;24.742;2022-08-04T21:20:09;98208.13;;;26.28;42.77
20895;BME280;10607;42.066;24.742;2022-08-04T21:22:35;98211.72;;;26.18;43.30
20895;BME280;10607;42.066;24.742;2022-08-04T21:25:00;98208.50;;;26.15;43.75
20895;BME280;10607;42.066;24.742;2022-08-04T21:27:26;98208.41;;;26.07;43.38
20895;BME280;10607;42.066;24.742;2022-08-04T21:29:52;98204.47;;;26.01;43.73
20895;BME280;10607;42.066;24.742;2022-08-04T21:32:17;98205.16;;;26.03;43.51
20895;BME280;10607;42.066;24.742;2022-08-04T21:34:42;98211.25;;;26.05;43.32
20895;BME280;10607;42.066;24.742;2022-08-04T21:37:08;98212.56;;;26.01;44.07
20895;BME280;10607;42.066;24.742;2022-08-04T21:39:35;98216.91;;;25.84;44.02
20895;BME280;10607;42.066;24.742;2022-08-04T21:42:01;98211.66;;;25.83;44.20
20895;BME280;10607;42.066;24.742;2022-08-04T21:44:27;98215.50;;;25.80;43.93
20895;BME280;10607;42.066;24.742;2022-08-04T21:46:52;98214.09;;;25.76;44.17
20895;BME280;10607;42.066;24.742;2022-08-04T21:49:18;98219.19;;;25.79;43.49
20895;BME280;10607;42.066;24.742;2022-08-04T21:51:43;98207.94;;;25.84;43.39
20895;BME280;10607;42.066;24.742;2022-08-04T21:54:09;98217.03;;;25.83;43.57
20895;BME280;10607;42.066;24.742;2022-08-04T21:56:35;98215.31;;;25.82;43.57
20895;BME280;10607;42.066;24.742;2022-08-04T21:59:01;98214.94;;;25.76;43.73
20895;BME280;10607;42.066;24.742;2022-08-04T22:01:27;98217.78;;;25.75;44.01
20895;BME280;10607;42.066;24.742;2022-08-04T22:03:53;98211.41;;;25.76;43.73
20895;BME280;10607;42.066;24.742;2022-08-04T22:06:18;98212.72;;;25.72;44.08
20895;BME280;10607;42.066;24.742;2022-08-04T22:08:44;98206.44;;;25.71;44.34
20895;BME280;10607;42.066;24.742;2022-08-04T22:13:57;98220.38;;;25.67;44.50
20895;BME280;10607;42.066;24.742;2022-08-04T22:16:24;98216.53;;;25.69;44.50
20895;BME280;10607;42.066;24.742;2022-08-04T22:18:50;98213.00;;;25.69;44.89
20895;BME280;10607;42.066;24.742;2022-08-04T22:21:15;98213.06;;;25.59;45.49
20895;BME280;10607;42.066;24.742;2022-08-04T22:23:41;98219.13;;;25.33;46.16
20895;BME280;10607;42.066;24.742;2022-08-04T22:26:33;98221.22;;;25.40;45.41
20895;BME280;10607;42.066;24.742;2022-08-04T22:28:58;98222.38;;;25.37;45.43
20895;BME280;10607;42.066;24.742;2022-08-04T22:31:24;98222.81;;;25.32;45.68
20895;BME280;10607;42.066;24.742;2022-08-04T22:33:50;98218.84;;;25.27;46.15
20895;BME280;10607;42.066;24.742;2022-08-04T22:36:18;98219.00;;;25.15;46.25
20895;BME280;10607;42.066;24.742;2022-08-04T22:38:43;98218.72;;;25.09;46.75
20895;BME280;10607;42.066;24.742;2022-08-04T22:41:11;98212.94;;;25.04;46.56
20895;BME280;10607;42.066;24.742;2022-08-04T22:43:37;98219.63;;;25.00;47.07
20895;BME280;10607;42.066;24.742;2022-08-04T22:46:09;98222.31;;;24.90;46.93
20895;BME280;10607;42.066;24.742;2022-08-04T22:48:36;98217.81;;;24.81;47.24
20895;BME280;10607;42.066;24.742;2022-08-04T22:51:04;98217.53;;;24.74;47.37
20895;BME280;10607;42.066;24.742;2022-08-04T22:53:30;98210.31;;;24.74;47.17
20895;BME280;10607;42.066;24.742;2022-08-04T22:55:56;98218.78;;;24.80;47.28
20895;BME280;10607;42.066;24.742;2022-08-04T22:58:21;98210.72;;;24.80;47.16
20895;BME280;10607;42.066;24.742;2022-08-04T23:00:47;98205.34;;;24.80;47.24
20895;BME280;10607;42.066;24.742;2022-08-04T23:03:12;98202.81;;;24.68;47.38
20895;BME280;10607;42.066;24.742;2022-08-04T23:05:38;98208.34;;;24.57;47.49
20895;BME280;10607;42.066;24.742;2022-08-04T23:08:04;98206.78;;;24.54;47.72
20895;BME280;10607;42.066;24.742;2022-08-04T23:10:29;98203.38;;;24.52;47.66
20895;BME280;10607;42.066;24.742;2022-08-04T23:12:55;98207.06;;;24.51;47.62
20895;BME280;10607;42.066;24.742;2022-08-04T23:15:20;98208.16;;;24.49;47.54
20895;BME280;10607;42.066;24.742;2022-08-04T23:17:45;98212.72;;;24.48;47.57
20895;BME280;10607;42.066;24.742;2022-08-04T23:20:12;98203.94;;;24.46;47.64
20895;BME280;10607;42.066;24.742;2022-08-04T23:22:38;98206.03;;;24.43;47.55
20895;BME280;10607;42.066;24.742;2022-08-04T23:25:04;98202.78;;;24.39;48.16
20895;BME280;10607;42.066;24.742;2022-08-04T23:27:34;98207.75;;;24.34;48.32
20895;BME280;10607;42.066;24.742;2022-08-04T23:30:00;98209.59;;;24.33;48.13
20895;BME280;10607;42.066;24.742;2022-08-04T23:32:25;98202.94;;;24.28;47.81
20895;BME280;10607;42.066;24.742;2022-08-04T23:34:50;98207.59;;;24.26;48.09
20895;BME280;10607;42.066;24.742;2022-08-04T23:37:16;98207.59;;;24.26;47.76
20895;BME280;10607;42.066;24.742;2022-08-04T23:39:41;98209.88;;;24.21;47.83
20895;BME280;10607;42.066;24.742;2022-08-04T23:42:06;98200.25;;;24.28;47.99
20895;BME280;10607;42.066;24.742;2022-08-04T23:44:32;98206.47;;;24.28;47.96
20895;BME280;10607;42.066;24.742;2022-08-04T23:46:59;98204.91;;;24.26;48.15
20895;BME280;10607;42.066;24.742;2022-08-04T23:49:25;98212.56;;;24.30;47.44
20895;BME280;10607;42.066;24.742;2022-08-04T23:51:50;98208.31;;;24.28;48.00
20895;BME280;10607;42.066;24.742;2022-08-04T23:54:15;98212.00;;;24.27;48.09
20895;BME280;10607;42.066;24.742;2022-08-04T23:56:41;98209.59;;;24.24;47.80
20895;BME280;10607;42.066;24.742;2022-08-04T23:59:06;98216.81;;;24.23;48.48
